Aérodrome :
LOGIN :

S'inscrire | Disclaimer

   EN    FR    IT 

 










Légende :    VFR   VFR Marginal   IFR   IFR Intensif   IFR Très Intensif
Visi : 
Plafond : 
>= 8 km
>= 3000ft
5 à 8 km
1000 à 3000 ft
1500m à 5 km
500 à 1000 ft
800 à 1500m
200 à 500 ft
< 800m
< 200 ft
Symboles :   Orages  Brouillard  Fortes neiges  Fortes précipitations  Vent > 20 kt
SIGMETs :   Divers  Orages  Givrage  Turbulence  Onde Orograph.  Cendres Volcan.






- Altitude de l'aérodrome : 215 ft
- Code IATA : ABZ


EGPD - Aberdeen / Dyce

DERNIER METAR :
  • 201050Z AUTO 21004KT 110V280 9999 NCD 08/04 Q1037

METARs EXPIRÉS :
  • 201020Z VRB03KT CAVOK 09/04 Q1037 NOSIG
  • 200950Z AUTO VRB03KT 9999 NCD 09/04 Q1037
  • 200920Z AUTO 18008KT 120V250 9999 NCD 07/04 Q1037 NOSIG
  • 200850Z AUTO 36005KT 290V050 9999 NCD 07/03 Q1037
  • 200820Z AUTO 02006KT 330V080 9999 NCD 08/04 Q1037

TAF AMD TAF EGPD
Valide du 20 à 06h jusqu'au 21 à 06h UTC


200544Z 2006/2106 23006KT CAVOK
PROB30
TEMPO 2021/2103 27015G25KT
BECMG 2103/2106 BKN030



MET'MAP, la Météo Aéronautique d'un coup d'oeil ! - Copyright ORBIFLY Décembre 2007 - Disclaimer

ORBIFLY MET'MAP TEAM :

Programmation & Développement : Alexandra Zaïnal
Sur une idée originale de : Baudouin d'Aumeries
Assistance à la programmation : Marc-Olivier Méhu
Soutien technique & logistique : Manuel Goepfert

Contact : metmap@orbifly.com




SOURCES & CREDITS :

   NOAA